createdAt,value
2017-07-22T00:01:15.774Z,-87
2017-07-22T00:03:50.592Z,-87
2017-07-22T00:06:25.479Z,-89
2017-07-22T00:09:01.240Z,-87
2017-07-22T00:11:36.092Z,-87
2017-07-22T00:14:14.223Z,-88
2017-07-22T00:16:49.011Z,-87
2017-07-22T00:19:23.954Z,-87
2017-07-22T00:21:58.858Z,-87
2017-07-22T00:24:33.744Z,-87
2017-07-22T00:27:08.563Z,-86
2017-07-22T00:29:43.511Z,-87
2017-07-22T00:32:19.211Z,-87
2017-07-22T00:34:54.175Z,-87
2017-07-22T00:37:29.003Z,-87
2017-07-22T00:40:14.041Z,-87
2017-07-22T00:42:48.965Z,-88
2017-07-22T00:45:23.959Z,-88
2017-07-22T00:47:58.853Z,-87
2017-07-22T00:50:33.675Z,-87
2017-07-22T00:53:08.491Z,-88
2017-07-22T00:55:43.475Z,-88
2017-07-22T00:58:18.391Z,-87
2017-07-22T01:00:53.419Z,-89
2017-07-22T01:03:28.355Z,-87
2017-07-22T01:06:03.376Z,-87
2017-07-22T01:08:39.141Z,-87
2017-07-22T01:11:14.163Z,-87
2017-07-22T01:13:49.907Z,-87
2017-07-22T01:16:24.928Z,-89
2017-07-22T01:18:59.986Z,-87
2017-07-22T01:21:34.779Z,-87
2017-07-22T01:24:10.567Z,-88
2017-07-22T01:26:45.580Z,-87
2017-07-22T01:29:20.494Z,-87
2017-07-22T01:31:55.452Z,-87
2017-07-22T01:34:30.451Z,-87
2017-07-22T01:37:05.360Z,-88
2017-07-22T01:39:40.318Z,-88
2017-07-22T01:42:15.267Z,-87
2017-07-22T01:44:50.313Z,-88
2017-07-22T01:47:25.296Z,-87
2017-07-22T01:50:00.073Z,-87
2017-07-22T01:52:35.054Z,-88
2017-07-22T01:55:10.020Z,-88
2017-07-22T01:57:45.015Z,-87
2017-07-22T02:00:24.636Z,-88
2017-07-22T02:02:59.585Z,-87
2017-07-22T02:05:34.597Z,-87
2017-07-22T02:08:09.413Z,-87
2017-07-22T02:10:44.355Z,-87
2017-07-22T02:13:19.202Z,-88
2017-07-22T02:15:54.109Z,-87
2017-07-22T02:18:29.679Z,-87
2017-07-22T02:21:04.599Z,-88
2017-07-22T02:23:39.542Z,-87
2017-07-22T02:26:14.519Z,-88
2017-07-22T02:28:50.141Z,-87
2017-07-22T02:31:25.061Z,-87
2017-07-22T02:34:00.069Z,-87
2017-07-22T02:36:34.922Z,-88
2017-07-22T02:39:09.728Z,-87
2017-07-22T02:41:45.479Z,-87
2017-07-22T02:44:20.451Z,-88
2017-07-22T02:46:56.176Z,-87
2017-07-22T02:49:31.842Z,-87
2017-07-22T02:52:06.834Z,-87
2017-07-22T02:54:42.611Z,-87
2017-07-22T02:57:17.520Z,-87
2017-07-22T02:59:52.373Z,-87
2017-07-22T03:02:27.348Z,-88
2017-07-22T03:05:02.418Z,-87
2017-07-22T03:07:37.446Z,-87
2017-07-22T03:10:12.306Z,-87
2017-07-22T03:12:47.228Z,-87
2017-07-22T03:15:22.143Z,-87
2017-07-22T03:17:57.051Z,-88
2017-07-22T03:20:32.856Z,-87
2017-07-22T03:23:07.731Z,-87
2017-07-22T03:25:42.726Z,-87
2017-07-22T03:28:17.655Z,-87
2017-07-22T03:30:53.397Z,-88
2017-07-22T03:33:28.364Z,-87
2017-07-22T03:36:03.187Z,-90
2017-07-22T03:38:38.154Z,-88
2017-07-22T03:41:13.140Z,-88
2017-07-22T03:43:48.148Z,-88
2017-07-22T03:46:23.147Z,-87
2017-07-22T03:48:58.096Z,-87
2017-07-22T03:51:32.929Z,-87
2017-07-22T03:54:07.932Z,-87
2017-07-22T03:56:42.720Z,-88
2017-07-22T03:59:17.653Z,-87
2017-07-22T04:01:52.498Z,-87
2017-07-22T04:04:27.490Z,-90
2017-07-22T04:07:02.451Z,-89
2017-07-22T04:09:37.354Z,-87
2017-07-22T04:12:12.171Z,-87
2017-07-22T04:14:47.207Z,-88
2017-07-22T04:17:22.044Z,-87
2017-07-22T04:19:57.782Z,-87
2017-07-22T04:22:32.724Z,-87
2017-07-22T04:25:07.699Z,-87
2017-07-22T04:27:42.679Z,-87
2017-07-22T04:30:17.695Z,-88
2017-07-22T04:32:52.682Z,-88
2017-07-22T04:35:27.632Z,-87
2017-07-22T04:38:02.638Z,-88
2017-07-22T04:40:37.564Z,-88
2017-07-22T04:43:12.436Z,-88
2017-07-22T04:45:47.415Z,-87
2017-07-22T04:48:22.510Z,-87
2017-07-22T04:50:57.372Z,-87
2017-07-22T04:53:32.234Z,-88
2017-07-22T04:56:07.963Z,-87
2017-07-22T04:58:42.945Z,-88
2017-07-22T05:01:17.910Z,-88
2017-07-22T05:03:52.868Z,-87
2017-07-22T05:06:27.871Z,-88
2017-07-22T05:09:03.594Z,-87
2017-07-22T05:11:38.431Z,-88
2017-07-22T05:14:13.395Z,-87
2017-07-22T05:16:48.391Z,-87
2017-07-22T05:19:23.336Z,-87
2017-07-22T05:21:58.178Z,-88
2017-07-22T05:24:33.143Z,-87
2017-07-22T05:27:08.042Z,-88
2017-07-22T05:29:43.742Z,-87
2017-07-22T05:32:18.679Z,-87
2017-07-22T05:34:53.579Z,-88
2017-07-22T05:37:28.439Z,-88
2017-07-22T05:40:03.337Z,-88
2017-07-22T05:42:38.269Z,-88
2017-07-22T05:45:13.216Z,-88
2017-07-22T05:47:48.171Z,-87
2017-07-22T05:50:22.984Z,-88
2017-07-22T05:52:57.823Z,-88
2017-07-22T05:55:32.788Z,-88
2017-07-22T05:58:07.742Z,-88
2017-07-22T06:00:42.736Z,-88
2017-07-22T06:03:17.631Z,-88
2017-07-22T06:05:52.607Z,-88
2017-07-22T06:08:27.491Z,-87
2017-07-22T06:11:03.156Z,-88
2017-07-22T06:13:37.959Z,-87
2017-07-22T06:16:12.920Z,-88
2017-07-22T06:18:47.940Z,-88
2017-07-22T06:21:22.757Z,-88
2017-07-22T06:23:57.684Z,-88
2017-07-22T06:26:32.623Z,-88
2017-07-22T06:29:07.471Z,-88
2017-07-22T06:31:42.387Z,-87
2017-07-22T06:34:17.395Z,-88
2017-07-22T06:36:52.252Z,-88
2017-07-22T06:39:27.272Z,-88
2017-07-22T06:42:02.189Z,-88
2017-07-22T06:44:37.022Z,-88
2017-07-22T06:47:12.011Z,-88
2017-07-22T06:49:47.000Z,-87
2017-07-22T06:52:28.428Z,-87
2017-07-22T06:55:03.472Z,-87
2017-07-22T06:57:40.639Z,-88
2017-07-22T07:00:15.431Z,-87
2017-07-22T07:02:51.232Z,-87
2017-07-22T07:05:26.172Z,-87
2017-07-22T07:08:01.156Z,-87
2017-07-22T07:10:47.708Z,-87
2017-07-22T07:13:23.173Z,-88
2017-07-22T07:15:58.187Z,-87
2017-07-22T07:18:33.106Z,-88
2017-07-22T07:21:07.981Z,-88
2017-07-22T07:23:42.935Z,-88
2017-07-22T07:26:18.597Z,-87
2017-07-22T07:28:53.405Z,-87
2017-07-22T07:31:28.317Z,-87
2017-07-22T07:34:03.266Z,-87
2017-07-22T07:36:38.208Z,-87
2017-07-22T07:39:14.199Z,-87
2017-07-22T07:41:49.215Z,-87
2017-07-22T07:44:24.063Z,-87
2017-07-22T07:46:59.001Z,-87
2017-07-22T07:49:33.982Z,-87
2017-07-22T07:52:08.924Z,-87
2017-07-22T07:54:43.898Z,-87
2017-07-22T07:57:20.752Z,-87
2017-07-22T07:59:55.809Z,-86
2017-07-22T08:02:30.605Z,-88
2017-07-22T08:05:09.884Z,-87
2017-07-22T08:07:44.912Z,-86
2017-07-22T08:10:19.952Z,-87
2017-07-22T08:12:59.360Z,-87
2017-07-22T08:15:34.310Z,-87
2017-07-22T08:18:11.925Z,-86
2017-07-22T08:20:46.835Z,-87
2017-07-22T08:23:21.670Z,-88
2017-07-22T08:25:57.288Z,-88
2017-07-22T08:28:32.205Z,-88
2017-07-22T08:31:07.233Z,-88
2017-07-22T08:33:42.071Z,-88
2017-07-22T08:36:17.038Z,-87
2017-07-22T08:38:51.959Z,-88
2017-07-22T08:41:26.796Z,-87
2017-07-22T08:44:01.724Z,-88
2017-07-22T08:46:36.696Z,-89
2017-07-22T08:49:11.500Z,-88
2017-07-22T08:51:46.315Z,-88
2017-07-22T08:54:21.448Z,-87
2017-07-22T08:56:56.472Z,-88
2017-07-22T08:59:34.997Z,-88
2017-07-22T09:02:09.959Z,-87
2017-07-22T09:04:44.863Z,-89
2017-07-22T09:07:19.708Z,-88
2017-07-22T09:09:54.500Z,-88
2017-07-22T09:12:29.367Z,-88
2017-07-22T09:15:04.288Z,-88
2017-07-22T09:17:39.243Z,-88
2017-07-22T09:20:14.194Z,-88
2017-07-22T09:22:50.112Z,-87
2017-07-22T09:25:27.796Z,-86
2017-07-22T09:28:02.799Z,-87
2017-07-22T09:30:37.648Z,-87
2017-07-22T09:33:12.516Z,-87
2017-07-22T09:35:47.331Z,-87
2017-07-22T09:38:22.227Z,-87
2017-07-22T09:40:58.719Z,-90
2017-07-22T09:43:33.667Z,-88
2017-07-22T09:46:08.562Z,-87
2017-07-22T09:48:43.528Z,-88
2017-07-22T09:51:18.316Z,-88
2017-07-22T09:53:53.160Z,-87
2017-07-22T09:56:28.103Z,-87
2017-07-22T09:59:06.638Z,-87
2017-07-22T10:01:41.571Z,-87
2017-07-22T10:04:16.424Z,-87
2017-07-22T10:06:51.323Z,-86
2017-07-22T10:09:27.198Z,-87
2017-07-22T10:12:02.123Z,-86
2017-07-22T10:14:36.900Z,-88
2017-07-22T10:17:11.814Z,-87
2017-07-22T10:19:47.587Z,-87
2017-07-22T10:22:22.501Z,-88
2017-07-22T10:24:57.479Z,-87
2017-07-22T10:27:32.407Z,-85
2017-07-22T10:30:07.276Z,-87
2017-07-22T10:32:42.212Z,-88
2017-07-22T10:35:17.182Z,-87
2017-07-22T10:37:51.988Z,-87
2017-07-22T10:40:27.058Z,-87
2017-07-22T10:43:02.632Z,-86
2017-07-22T10:45:37.528Z,-87
2017-07-22T10:48:12.319Z,-87
2017-07-22T10:50:47.225Z,-87
2017-07-22T10:53:22.078Z,-87
2017-07-22T10:55:57.784Z,-87
2017-07-22T10:58:32.724Z,-88
2017-07-22T11:01:07.649Z,-87
2017-07-22T11:03:42.455Z,-87
2017-07-22T11:06:17.320Z,-88
2017-07-22T11:08:52.093Z,-88
2017-07-22T11:11:26.922Z,-88
2017-07-22T11:14:01.883Z,-88
2017-07-22T11:16:36.813Z,-87
2017-07-22T11:19:11.779Z,-88
2017-07-22T11:21:46.756Z,-88
2017-07-22T11:24:22.418Z,-88
2017-07-22T11:26:58.174Z,-88
2017-07-22T11:29:33.109Z,-88
2017-07-22T11:32:08.185Z,-87
2017-07-22T11:34:43.076Z,-88
2017-07-22T11:37:18.114Z,-88
2017-07-22T11:39:53.139Z,-88
2017-07-22T11:42:28.065Z,-88
2017-07-22T11:45:02.856Z,-88
2017-07-22T11:47:37.745Z,-88
2017-07-22T11:50:12.655Z,-88
2017-07-22T11:52:47.687Z,-88
2017-07-22T11:55:22.658Z,-88
2017-07-22T11:57:57.615Z,-88
2017-07-22T12:00:32.579Z,-88
2017-07-22T12:03:07.517Z,-88
2017-07-22T12:05:48.606Z,-88
2017-07-22T12:08:23.584Z,-88
2017-07-22T12:10:58.384Z,-88
2017-07-22T12:13:33.367Z,-90
2017-07-22T12:16:08.294Z,-89
2017-07-22T12:18:43.251Z,-88
2017-07-22T12:21:18.093Z,-88
2017-07-22T12:23:52.884Z,-88
2017-07-22T12:26:27.644Z,-89
2017-07-22T12:29:02.720Z,-88
2017-07-22T12:31:37.520Z,-89
2017-07-22T12:34:12.357Z,-88
2017-07-22T12:36:47.123Z,-88
2017-07-22T12:39:22.033Z,-89
2017-07-22T12:41:56.939Z,-86
2017-07-22T12:44:32.025Z,-88
2017-07-22T12:47:06.818Z,-88
2017-07-22T12:49:41.790Z,-88
2017-07-22T12:52:18.042Z,-87
2017-07-22T12:54:58.195Z,-88
2017-07-22T12:57:33.167Z,-87
2017-07-22T13:00:12.863Z,-89
2017-07-22T13:02:47.646Z,-88
2017-07-22T13:05:22.718Z,-88
2017-07-22T13:07:57.489Z,-88
2017-07-22T13:10:32.712Z,-89
2017-07-22T13:13:07.639Z,-89
2017-07-22T13:15:42.683Z,-88
2017-07-22T13:18:18.137Z,-88
2017-07-22T13:20:54.177Z,-88
2017-07-22T13:23:29.254Z,-86
2017-07-22T13:26:04.089Z,-87
2017-07-22T13:28:38.912Z,-88
2017-07-22T13:31:16.527Z,-86
2017-07-22T13:33:51.327Z,-88
2017-07-22T13:36:26.664Z,-88
2017-07-22T13:39:01.572Z,-88
2017-07-22T13:41:37.931Z,-87
2017-07-22T13:44:12.759Z,-88
2017-07-22T13:46:47.722Z,-87
2017-07-22T13:49:22.722Z,-87
2017-07-22T13:51:58.121Z,-88
2017-07-22T13:54:33.362Z,-88
2017-07-22T13:57:08.286Z,-88
2017-07-22T13:59:43.374Z,-88
2017-07-22T14:02:18.315Z,-88
2017-07-22T14:04:54.011Z,-89
2017-07-22T14:07:28.992Z,-88
2017-07-22T14:10:03.770Z,-88
2017-07-22T14:12:38.953Z,-88
2017-07-22T14:15:13.852Z,-88
2017-07-22T14:17:48.666Z,-88
2017-07-22T14:20:23.592Z,-88
2017-07-22T14:22:58.552Z,-89
2017-07-22T14:25:33.351Z,-88
2017-07-22T14:28:08.211Z,-89
2017-07-22T14:30:43.037Z,-89
2017-07-22T14:33:17.857Z,-88
2017-07-22T14:35:53.703Z,-91
2017-07-22T14:38:29.023Z,-90
2017-07-22T14:41:04.107Z,-89
2017-07-22T14:43:38.979Z,-90
2017-07-22T14:46:39.197Z,-92
2017-07-22T14:49:14.955Z,-89
2017-07-22T14:52:01.794Z,-89
2017-07-22T14:54:37.385Z,-88
2017-07-22T14:57:14.877Z,-87
2017-07-22T14:59:49.795Z,-88
2017-07-22T15:02:24.606Z,-87
2017-07-22T15:04:59.415Z,-89
2017-07-22T15:07:34.305Z,-89
2017-07-22T15:10:09.092Z,-87
2017-07-22T15:12:43.871Z,-88
2017-07-22T15:15:18.653Z,-88
2017-07-22T15:17:58.208Z,-88
2017-07-22T15:20:33.270Z,-87
2017-07-22T15:23:08.072Z,-87
2017-07-22T15:25:43.822Z,-88
2017-07-22T15:28:22.991Z,-88
2017-07-22T15:30:57.861Z,-88
2017-07-22T15:33:32.749Z,-87
2017-07-22T15:36:08.759Z,-88
2017-07-22T15:38:45.718Z,-87
2017-07-22T15:41:20.811Z,-87
2017-07-22T15:43:55.867Z,-87
2017-07-22T15:46:30.936Z,-87
2017-07-22T15:49:05.847Z,-86
2017-07-22T15:51:40.696Z,-86
2017-07-22T15:54:15.529Z,-87
2017-07-22T15:56:51.302Z,-87
2017-07-22T15:59:27.290Z,-86
2017-07-22T16:02:02.151Z,-87
2017-07-22T16:04:37.053Z,-87
2017-07-22T16:07:11.875Z,-86
2017-07-22T16:09:46.818Z,-87
2017-07-22T16:12:21.616Z,-87
2017-07-22T16:14:56.665Z,-86
2017-07-22T16:17:32.646Z,-86
2017-07-22T16:20:07.710Z,-87
2017-07-22T16:22:42.772Z,-87
2017-07-22T16:25:17.567Z,-87
2017-07-22T16:27:52.543Z,-87
2017-07-22T16:30:28.143Z,-86
2017-07-22T16:33:03.119Z,-87
2017-07-22T16:35:37.979Z,-86
2017-07-22T16:38:12.907Z,-86
2017-07-22T16:40:47.698Z,-86
2017-07-22T16:43:22.553Z,-86
2017-07-22T16:45:57.360Z,-86
2017-07-22T16:48:33.391Z,-86
2017-07-22T16:51:08.418Z,-85
2017-07-22T16:53:43.342Z,-86
2017-07-22T16:56:18.152Z,-86
2017-07-22T16:58:53.118Z,-86
2017-07-22T17:01:27.990Z,-86
2017-07-22T17:04:03.705Z,-86
2017-07-22T17:06:39.524Z,-88
2017-07-22T17:09:14.556Z,-86
2017-07-22T17:11:55.189Z,-86
2017-07-22T17:14:30.045Z,-86
2017-07-22T17:17:04.864Z,-86
2017-07-22T17:19:42.403Z,-86
2017-07-22T17:31:54.097Z,-90
2017-07-22T17:34:38.242Z,-90
2017-07-22T17:37:15.117Z,-90
2017-07-22T17:39:51.096Z,-90
2017-07-22T17:42:25.907Z,-91
2017-07-22T17:45:00.957Z,-92
2017-07-22T17:47:35.884Z,-93
2017-07-22T17:50:11.781Z,-92
2017-07-22T17:52:52.458Z,-90
2017-07-22T17:55:35.255Z,-92
2017-07-22T17:58:13.671Z,-90
2017-07-22T18:00:48.610Z,-91
2017-07-22T18:03:23.573Z,-92
2017-07-22T18:05:58.372Z,-90
2017-07-22T18:08:33.159Z,-89
2017-07-22T18:11:08.758Z,-90
2017-07-22T18:13:43.702Z,-90
2017-07-22T18:16:18.520Z,-90
2017-07-22T18:18:53.640Z,-90
2017-07-22T18:21:28.510Z,-90
2017-07-22T18:24:03.291Z,-89
2017-07-22T18:26:38.214Z,-89
2017-07-22T18:29:13.167Z,-89
2017-07-22T18:31:47.985Z,-88
2017-07-22T18:34:22.907Z,-88
2017-07-22T18:37:08.555Z,-90
2017-07-22T18:39:43.451Z,-90
2017-07-22T18:42:24.100Z,-89
2017-07-22T18:45:04.276Z,-88
2017-07-22T18:47:39.271Z,-89
2017-07-22T18:50:46.301Z,-87
2017-07-22T18:53:23.883Z,-86
2017-07-22T18:55:58.707Z,-87
2017-07-22T18:58:34.614Z,-86
2017-07-22T19:01:20.748Z,-87
2017-07-22T19:03:55.688Z,-87
2017-07-22T19:06:34.785Z,-87
2017-07-22T19:09:10.452Z,-86
2017-07-22T19:11:47.372Z,-87
2017-07-22T19:14:26.060Z,-87
2017-07-22T19:17:00.983Z,-87
2017-07-22T19:19:35.814Z,-87
2017-07-22T19:22:10.749Z,-89
2017-07-22T19:24:46.611Z,-90
2017-07-22T19:27:28.492Z,-88
2017-07-22T19:30:04.254Z,-88
2017-07-22T19:32:40.145Z,-87
2017-07-22T19:35:17.091Z,-87
2017-07-22T19:37:52.862Z,-87
2017-07-22T19:40:27.774Z,-87
2017-07-22T19:43:14.373Z,-87
2017-07-22T19:45:51.150Z,-88
2017-07-22T19:48:26.196Z,-87
2017-07-22T19:51:01.124Z,-87
2017-07-22T19:53:37.911Z,-86
2017-07-22T19:56:12.923Z,-87
2017-07-22T19:58:48.063Z,-87
2017-07-22T20:01:22.946Z,-88
2017-07-22T20:03:58.231Z,-86
2017-07-22T20:06:33.156Z,-86
2017-07-22T20:09:09.356Z,-86
2017-07-22T20:11:44.507Z,-88
2017-07-22T20:14:19.632Z,-87
2017-07-22T20:16:56.433Z,-87
2017-07-22T20:19:31.800Z,-87
2017-07-22T20:22:07.788Z,-87
2017-07-22T20:24:43.539Z,-87
2017-07-22T20:27:18.766Z,-87
2017-07-22T20:29:53.806Z,-87
2017-07-22T20:32:29.116Z,-87
2017-07-22T20:35:04.293Z,-88
2017-07-22T20:37:48.776Z,-88
2017-07-22T20:40:23.947Z,-87
2017-07-22T20:42:59.432Z,-87
2017-07-22T20:45:34.888Z,-87
2017-07-22T20:48:09.776Z,-87
2017-07-22T20:50:45.299Z,-87
2017-07-22T20:53:24.630Z,-87
2017-07-22T20:55:59.553Z,-88
2017-07-22T20:58:34.701Z,-87
2017-07-22T21:01:09.896Z,-87
2017-07-22T21:03:45.291Z,-87
2017-07-22T21:06:20.684Z,-88
2017-07-22T21:08:56.767Z,-86
2017-07-22T21:11:32.113Z,-88
2017-07-22T21:14:08.443Z,-87
2017-07-22T21:16:43.304Z,-87
2017-07-22T21:19:18.151Z,-87
2017-07-22T21:21:53.348Z,-87
2017-07-22T21:24:28.319Z,-87
2017-07-22T21:27:03.770Z,-90
2017-07-22T21:29:39.063Z,-90
2017-07-22T21:32:15.139Z,-89
2017-07-22T21:34:50.274Z,-90
2017-07-22T21:37:25.216Z,-90
2017-07-22T21:40:00.372Z,-89
2017-07-22T21:42:35.756Z,-89
2017-07-22T21:45:10.678Z,-89
2017-07-22T21:47:46.937Z,-90
2017-07-22T21:50:22.048Z,-90
2017-07-22T21:52:57.351Z,-87
2017-07-22T21:55:32.256Z,-87
2017-07-22T21:58:08.491Z,-86
2017-07-22T22:00:44.238Z,-86
2017-07-22T22:03:20.586Z,-88
2017-07-22T22:05:56.479Z,-86
2017-07-22T22:08:31.533Z,-86
2017-07-22T22:11:06.505Z,-86
2017-07-22T22:13:41.410Z,-86
2017-07-22T22:16:16.310Z,-86
2017-07-22T22:18:51.282Z,-85
2017-07-22T22:21:26.256Z,-86
2017-07-22T22:24:02.262Z,-86
2017-07-22T22:26:37.014Z,-86
2017-07-22T22:29:11.870Z,-85
2017-07-22T22:31:46.792Z,-85
2017-07-22T22:34:21.683Z,-86
2017-07-22T22:36:59.928Z,-86
2017-07-22T22:39:34.706Z,-87
2017-07-22T22:42:09.879Z,-85
2017-07-22T22:44:44.732Z,-85
2017-07-22T22:47:24.717Z,-86
2017-07-22T22:50:01.860Z,-87
2017-07-22T22:52:36.687Z,-86
2017-07-22T22:55:11.531Z,-86
2017-07-22T22:57:46.323Z,-85
2017-07-22T23:00:22.247Z,-86
2017-07-22T23:02:57.319Z,-86
2017-07-22T23:05:32.116Z,-85
2017-07-22T23:08:06.911Z,-86
2017-07-22T23:10:41.796Z,-86
2017-07-22T23:13:16.767Z,-86
2017-07-22T23:15:51.715Z,-86
2017-07-22T23:18:27.243Z,-87
2017-07-22T23:21:03.379Z,-90
2017-07-22T23:23:38.293Z,-87
2017-07-22T23:26:13.222Z,-87
2017-07-22T23:28:48.852Z,-87
2017-07-22T23:31:23.770Z,-86
2017-07-22T23:33:58.688Z,-87
2017-07-22T23:36:33.642Z,-86
2017-07-22T23:39:09.319Z,-87
2017-07-22T23:41:44.419Z,-87
2017-07-22T23:44:19.263Z,-87
2017-07-22T23:46:54.196Z,-88
2017-07-22T23:49:29.264Z,-87
2017-07-22T23:52:04.275Z,-87
2017-07-22T23:54:39.189Z,-87
2017-07-22T23:57:14.971Z,-87
2017-07-22T23:59:49.931Z,-86
